Terminal Aerodrome Forecast
Issued by NWS Corpus Christi, TX

Home | Current Version | Previous Version | Text Only | Print | Product List | Glossary On
Versions: 1 2 3 4 5 6 7 8 9 10 11 12
000
FTUS44 KCRP 200500
TAFVCT
TAF
KVCT 200529Z 2006/2106 VRB04KT P6SM FEW015
      TEMPO 2010/2013 BKN012
     FM201500 18012KT P6SM SCT025 SCT150
     FM202100 15017G24KT P6SM SCT030
     FM210100 15011KT P6SM FEW025=

USA.gov is the U.S. government's official web portal to all federal, state and local government web resources and services.